Time;durP1;ratioP1;P1;durP2;ratioP2;P2;SDS_P1;SDS_P2;PMS_P1;PMS_P2;Temp;Humidity;BMP_temperature;BMP_pressure;BME280_temperature;BME280_humidity;BME280_pressure;Samples;Min_cycle;Max_cycle;Signal;HPM_P1;HPM_P2
2021/05/21 00:00:46;;;;;;;2.93;2.53;;;17.00;37.60;;;;;;5117534;22;20508;-89
2021/05/21 00:03:12;;;;;;;4.20;2.50;;;17.00;38.60;;;;;;5098541;28;20446;-88
2021/05/21 00:05:39;;;;;;;3.47;2.80;;;17.30;39.70;;;;;;5112885;28;20438;-88
2021/05/21 00:08:09;;;;;;;6.47;3.00;;;17.30;39.50;;;;;;5106354;28;20442;-88
2021/05/21 00:10:36;;;;;;;6.30;3.30;;;16.80;40.60;;;;;;5097930;28;20450;-88
2021/05/21 00:13:02;;;;;;;6.93;3.40;;;16.40;41.30;;;;;;5098542;28;20470;-88
2021/05/21 00:15:29;;;;;;;5.07;3.23;;;16.30;41.80;;;;;;5099819;28;20530;-88
2021/05/21 00:17:55;;;;;;;7.33;3.50;;;16.40;41.30;;;;;;5098892;28;20469;-89
2021/05/21 00:20:22;;;;;;;5.60;3.40;;;16.60;41.60;;;;;;5097318;28;20485;-89
2021/05/21 00:22:48;;;;;;;2.90;2.70;;;16.60;41.50;;;;;;5098220;28;20494;-89
2021/05/21 00:25:15;;;;;;;3.77;3.27;;;16.60;41.50;;;;;;5098977;28;20530;-88
2021/05/21 00:27:42;;;;;;;5.70;3.70;;;16.70;41.50;;;;;;5098810;28;20452;-88
2021/05/21 00:30:09;;;;;;;5.73;4.00;;;16.70;41.60;;;;;;5097496;28;20459;-89
2021/05/21 00:32:35;;;;;;;3.70;3.40;;;16.90;41.70;;;;;;5097045;28;20451;-88
2021/05/21 00:35:02;;;;;;;4.23;2.73;;;16.80;41.60;;;;;;5098295;28;20444;-88
2021/05/21 00:37:28;;;;;;;7.13;3.40;;;16.90;41.70;;;;;;5099421;28;20444;-88
2021/05/21 00:39:55;;;;;;;5.53;3.57;;;16.90;41.70;;;;;;5102265;28;20488;-89
2021/05/21 00:42:22;;;;;;;5.67;4.60;;;16.90;40.50;;;;;;5102268;28;20485;-89
2021/05/21 00:44:55;;;;;;;5.70;3.10;;;16.90;41.10;;;;;;5101788;28;20453;-88
2021/05/21 00:47:22;;;;;;;15.90;4.23;;;17.00;41.80;;;;;;5108235;28;20459;-89
2021/05/21 00:49:48;;;;;;;6.00;4.30;;;17.10;40.00;;;;;;5108430;28;21009;-89
2021/05/21 00:52:17;;;;;;;4.03;3.53;;;17.00;40.60;;;;;;5106791;28;20436;-88
2021/05/21 00:54:45;;;;;;;7.23;4.47;;;16.80;40.80;;;;;;5107888;28;20449;-87
2021/05/21 00:57:11;;;;;;;3.80;3.40;;;16.90;41.70;;;;;;5108093;28;20461;-88
2021/05/21 00:59:39;;;;;;;7.40;4.60;;;16.90;40.90;;;;;;5106639;28;20520;-88
2021/05/21 01:02:07;;;;;;;5.50;3.47;;;16.70;41.70;;;;;;5103957;28;20555;-89
2021/05/21 01:04:33;;;;;;;4.23;2.90;;;16.60;41.40;;;;;;5101001;28;20436;-88
2021/05/21 01:07:00;;;;;;;9.23;3.70;;;16.60;42.00;;;;;;5101492;28;20476;-89
2021/05/21 01:09:26;;;;;;;4.30;3.50;;;16.60;41.40;;;;;;5103284;28;20450;-89
2021/05/21 01:11:52;;;;;;;12.43;5.53;;;16.80;41.60;;;;;;5102755;28;20481;-88
2021/05/21 01:14:19;;;;;;;4.37;3.20;;;16.90;40.90;;;;;;5101301;28;20422;-89
2021/05/21 01:16:46;;;;;;;3.57;2.70;;;17.00;41.80;;;;;;5101610;28;20815;-89
2021/05/21 01:19:13;;;;;;;5.80;4.13;;;17.20;42.30;;;;;;5102112;28;20477;-88
2021/05/21 01:21:40;;;;;;;3.20;3.00;;;17.30;41.20;;;;;;5101500;28;20509;-88
2021/05/21 01:24:08;;;;;;;3.57;3.37;;;17.00;40.10;;;;;;5102979;28;20610;-89
2021/05/21 01:26:35;;;;;;;3.57;3.20;;;17.00;40.30;;;;;;5104222;28;21133;-87
2021/05/21 01:29:02;;;;;;;3.87;3.10;;;17.00;40.20;;;;;;5116012;28;20410;-87
2021/05/21 01:31:29;;;;;;;7.77;3.47;;;16.30;41.10;;;;;;5112518;28;20472;-88
2021/05/21 01:33:56;;;;;;;6.30;3.50;;;16.10;41.40;;;;;;5108878;28;20495;-88
2021/05/21 01:36:22;;;;;;;4.67;3.60;;;15.90;41.60;;;;;;5109304;28;20476;-88
2021/05/21 01:38:57;;;;;;;6.80;3.77;;;15.80;42.00;;;;;;5109651;28;20431;-88
2021/05/21 01:41:24;;;;;;;4.97;3.17;;;16.10;42.30;;;;;;5110400;28;20567;-88
2021/05/21 01:43:52;;;;;;;5.70;3.40;;;16.10;41.00;;;;;;5110477;28;20446;-89
2021/05/21 01:46:19;;;;;;;5.67;3.17;;;16.10;41.10;;;;;;5115450;28;20476;-87
2021/05/21 01:48:46;;;;;;;5.07;3.40;;;15.90;40.80;;;;;;5113884;28;20431;-88
2021/05/21 01:51:13;;;;;;;4.43;4.07;;;16.10;42.60;;;;;;5106188;28;20530;-88
2021/05/21 01:53:39;;;;;;;6.70;3.10;;;16.30;41.10;;;;;;5110173;28;20518;-88
2021/05/21 01:56:07;;;;;;;3.97;3.00;;;15.80;41.10;;;;;;5119608;28;20435;-88
2021/05/21 01:58:34;;;;;;;3.33;3.07;;;15.60;41.30;;;;;;5119641;28;20480;-89
2021/05/21 02:01:00;;;;;;;3.40;3.07;;;15.90;43.60;;;;;;5118560;28;20491;-89
2021/05/21 02:03:28;;;;;;;3.80;2.93;;;16.10;41.00;;;;;;5119436;28;20445;-89
2021/05/21 02:05:55;;;;;;;3.77;3.03;;;16.30;42.80;;;;;;5118055;28;20446;-89
2021/05/21 02:08:23;;;;;;;4.47;3.20;;;16.60;42.20;;;;;;5116898;28;20451;-88
2021/05/21 02:10:50;;;;;;;8.10;4.17;;;17.00;41.80;;;;;;5112185;28;20466;-89
2021/05/21 02:13:17;;;;;;;16.53;8.43;;;16.90;40.80;;;;;;5118625;28;20424;-88
2021/05/21 02:15:44;;;;;;;4.33;3.40;;;16.80;40.70;;;;;;5118381;28;20454;-89
2021/05/21 02:18:10;;;;;;;5.03;3.40;;;16.70;41.60;;;;;;5118802;28;20449;-88
2021/05/21 02:20:37;;;;;;;5.70;3.87;;;16.60;41.40;;;;;;5119007;28;20538;-88
2021/05/21 02:23:04;;;;;;;3.13;3.00;;;16.60;40.30;;;;;;5119506;28;20456;-88
2021/05/21 02:25:31;;;;;;;3.40;3.03;;;16.60;40.90;;;;;;5118861;28;20449;-89
2021/05/21 02:27:57;;;;;;;4.30;2.93;;;16.80;41.70;;;;;;5119097;28;20442;-88
2021/05/21 02:30:25;;;;;;;4.20;3.53;;;17.10;41.50;;;;;;5119070;28;20454;-87
2021/05/21 02:32:52;;;;;;;2.77;2.47;;;16.60;39.40;;;;;;5118608;28;20440;-88
2021/05/21 02:35:19;;;;;;;6.23;3.27;;;16.60;41.70;;;;;;5114008;28;20447;-89
2021/05/21 02:37:46;;;;;;;2.93;2.77;;;16.70;40.70;;;;;;5112976;28;20476;-89
2021/05/21 02:40:13;;;;;;;3.73;3.40;;;16.60;41.40;;;;;;5119086;28;20475;-88
2021/05/21 02:42:40;;;;;;;2.93;2.77;;;16.40;39.80;;;;;;5118593;28;20445;-89
2021/05/21 02:45:08;;;;;;;3.30;2.90;;;16.10;41.60;;;;;;5118915;28;20458;-88
2021/05/21 02:47:35;;;;;;;10.23;3.20;;;16.50;42.60;;;;;;5119034;28;20411;-88
2021/05/21 02:50:02;;;;;;;3.63;2.73;;;16.60;41.40;;;;;;5118495;28;20516;-89
2021/05/21 02:52:30;;;;;;;4.47;2.93;;;16.90;41.70;;;;;;5118466;28;20445;-89
2021/05/21 02:54:56;;;;;;;5.10;3.00;;;16.70;41.50;;;;;;5118645;28;20505;-89
2021/05/21 02:57:24;;;;;;;3.10;2.63;;;16.90;41.10;;;;;;5118978;28;20463;-87
2021/05/21 02:59:50;;;;;;;6.43;2.70;;;16.90;41.70;;;;;;5118169;28;20480;-87
2021/05/21 03:02:17;;;;;;;4.87;3.13;;;16.80;41.20;;;;;;5118555;28;20506;-87
2021/05/21 03:04:44;;;;;;;4.27;3.60;;;17.10;40.50;;;;;;5119064;28;20449;-89
2021/05/21 03:07:11;;;;;;;7.33;3.00;;;16.60;39.80;;;;;;5119061;28;20443;-87
2021/05/21 03:09:37;;;;;;;3.70;2.77;;;16.80;41.60;;;;;;5118465;28;20447;-86
2021/05/21 03:12:04;;;;;;;4.13;2.87;;;16.90;41.70;;;;;;5118737;28;20431;-88
2021/05/21 03:14:31;;;;;;;3.30;2.70;;;16.90;41.70;;;;;;5118162;28;20439;-88
2021/05/21 03:16:59;;;;;;;4.27;2.93;;;16.60;41.00;;;;;;5118328;28;20435;-88
2021/05/21 03:19:25;;;;;;;3.43;3.07;;;16.90;41.70;;;;;;5112105;28;20884;-89
2021/05/21 03:21:53;;;;;;;3.50;2.83;;;16.90;41.70;;;;;;5097744;28;20491;-89
2021/05/21 03:24:19;;;;;;;4.90;2.90;;;16.80;41.60;;;;;;5098029;28;20458;-89
2021/05/21 03:26:45;;;;;;;5.43;3.20;;;17.10;41.90;;;;;;5098510;28;20474;-89
2021/05/21 03:29:15;;;;;;;3.10;2.93;;;17.10;39.60;;;;;;5115546;28;20555;-88
2021/05/21 03:31:41;;;;;;;5.10;2.93;;;17.00;40.40;;;;;;5098077;28;20471;-88
2021/05/21 03:34:08;;;;;;;3.07;2.53;;;16.80;41.60;;;;;;5097487;28;20490;-88
2021/05/21 03:36:34;;;;;;;5.50;2.70;;;16.80;41.60;;;;;;5098587;28;20845;-90
2021/05/21 03:39:02;;;;;;;3.33;2.80;;;16.40;41.30;;;;;;5098241;28;20443;-89
2021/05/21 03:41:28;;;;;;;3.43;2.70;;;16.10;39.50;;;;;;5098099;28;20471;-89
2021/05/21 03:43:55;;;;;;;3.10;2.97;;;16.10;43.10;;;;;;5098678;28;20478;-89
2021/05/21 03:46:21;;;;;;;2.57;2.37;;;16.30;42.40;;;;;;5098062;28;20446;-89
2021/05/21 03:48:48;;;;;;;3.13;2.80;;;16.70;42.60;;;;;;5097886;28;20450;-89
2021/05/21 03:51:14;;;;;;;2.53;2.37;;;16.60;41.50;;;;;;5097396;28;20943;-89
2021/05/21 03:53:41;;;;;;;2.77;2.50;;;16.80;41.60;;;;;;5097703;28;20482;-89
2021/05/21 03:56:09;;;;;;;6.93;3.17;;;16.60;41.40;;;;;;5098191;28;20800;-89
2021/05/21 03:58:35;;;;;;;2.97;2.77;;;16.60;40.60;;;;;;5097301;28;20444;-89
2021/05/21 04:01:02;;;;;;;3.20;2.63;;;16.40;41.30;;;;;;5097270;28;20538;-90
2021/05/21 04:03:29;;;;;;;3.30;3.03;;;16.50;41.30;;;;;;5098833;28;20447;-90
2021/05/21 04:05:56;;;;;;;3.10;2.90;;;16.60;41.40;;;;;;5098081;28;20483;-89
2021/05/21 04:08:22;;;;;;;3.73;3.20;;;16.20;39.30;;;;;;5097934;28;20439;-89
2021/05/21 04:10:49;;;;;;;4.60;3.17;;;16.30;42.10;;;;;;5097508;28;20592;-89
2021/05/21 04:13:16;;;;;;;4.27;3.10;;;16.10;40.90;;;;;;5096834;28;20470;-88
2021/05/21 04:15:43;;;;;;;4.67;2.70;;;16.20;41.10;;;;;;5079686;28;20448;-89
2021/05/21 04:18:11;;;;;;;6.80;3.23;;;16.20;41.10;;;;;;5097727;28;20463;-88
2021/05/21 04:20:38;;;;;;;5.23;3.37;;;16.20;41.10;;;;;;5097489;28;20490;-89
2021/05/21 04:23:04;;;;;;;4.10;2.83;;;15.90;40.80;;;;;;5097880;28;20458;-89
2021/05/21 04:25:31;;;;;;;2.83;2.70;;;16.20;43.10;;;;;;5097214;28;20450;-89
2021/05/21 04:27:57;;;;;;;3.50;3.00;;;16.30;41.20;;;;;;5097564;28;20523;-89
2021/05/21 04:30:25;;;;;;;4.17;3.40;;;16.40;39.90;;;;;;5104372;28;20474;-89
2021/05/21 04:32:52;;;;;;;4.40;3.70;;;16.10;40.90;;;;;;5098689;28;20812;-88
2021/05/21 04:35:18;;;;;;;5.43;2.83;;;15.80;40.70;;;;;;5097105;28;20964;-90
2021/05/21 04:37:45;;;;;;;3.90;3.30;;;16.10;41.40;;;;;;5097546;28;20536;-89
2021/05/21 04:40:12;;;;;;;5.23;3.47;;;16.50;41.30;;;;;;5097058;28;21040;-89
2021/05/21 04:42:38;;;;;;;9.83;3.40;;;16.60;41.40;;;;;;5097202;28;20466;-88
2021/05/21 04:45:07;;;;;;;4.30;3.50;;;16.50;40.80;;;;;;5096902;28;20546;-89
2021/05/21 04:47:34;;;;;;;2.60;2.40;;;16.40;41.30;;;;;;5096985;28;20461;-89
2021/05/21 04:50:01;;;;;;;7.10;4.00;;;16.40;41.30;;;;;;5096058;28;20463;-89
2021/05/21 04:52:27;;;;;;;3.43;3.13;;;16.60;40.10;;;;;;5095581;28;20940;-89
2021/05/21 04:54:53;;;;;;;5.53;3.50;;;16.50;41.30;;;;;;5095883;28;20435;-89
2021/05/21 04:57:20;;;;;;;14.73;6.13;;;16.30;41.10;;;;;;5096472;28;20463;-89
2021/05/21 04:59:46;;;;;;;11.20;3.83;;;16.00;40.90;;;;;;5095685;28;20494;-89
2021/05/21 05:02:13;;;;;;;11.40;6.07;;;15.80;42.00;;;;;;5096267;28;20458;-88
2021/05/21 05:04:40;;;;;;;6.60;3.87;;;16.00;42.80;;;;;;5096582;28;20442;-89
2021/05/21 05:07:06;;;;;;;17.30;8.70;;;16.30;41.30;;;;;;5096019;28;20538;-89
2021/05/21 05:09:33;;;;;;;6.87;4.53;;;16.60;41.40;;;;;;5107867;28;20458;-88
2021/05/21 05:12:00;;;;;;;7.83;3.60;;;16.90;40.30;;;;;;5103646;28;20453;-89
2021/05/21 05:14:26;;;;;;;21.43;10.77;;;16.90;40.00;;;;;;5096747;28;20453;-89
2021/05/21 05:16:54;;;;;;;7.37;4.20;;;16.70;40.70;;;;;;5097635;28;20445;-89
2021/05/21 05:19:20;;;;;;;3.73;3.50;;;16.70;40.80;;;;;;5098209;28;20890;-89
2021/05/21 05:21:48;;;;;;;4.53;3.87;;;16.80;40.40;;;;;;5098103;28;20470;-90
2021/05/21 05:24:17;;;;;;;4.90;3.90;;;16.90;40.50;;;;;;5100074;28;20458;-88
2021/05/21 05:26:44;;;;;;;5.73;5.27;;;17.00;40.00;;;;;;5100788;28;20500;-88
2021/05/21 05:29:10;;;;;;;5.40;3.53;;;17.00;40.80;;;;;;5100740;28;20469;-88
2021/05/21 05:31:38;;;;;;;5.00;4.00;;;17.20;40.60;;;;;;5100009;28;20442;-89
2021/05/21 05:34:04;;;;;;;10.30;4.03;;;16.80;41.60;;;;;;5100067;28;20461;-89
2021/05/21 05:36:31;;;;;;;12.70;4.10;;;16.70;41.50;;;;;;5100711;28;20461;-88
2021/05/21 05:38:59;;;;;;;7.30;3.80;;;17.20;41.10;;;;;;5100216;28;20454;-89
2021/05/21 05:41:25;;;;;;;6.10;3.20;;;17.10;40.80;;;;;;5100488;28;20967;-88
2021/05/21 05:43:52;;;;;;;5.20;3.70;;;17.40;40.40;;;;;;5099476;28;20923;-88
2021/05/21 05:46:18;;;;;;;4.40;3.30;;;17.60;39.80;;;;;;5099607;28;20557;-89
2021/05/21 05:48:46;;;;;;;10.03;3.83;;;17.50;39.80;;;;;;5098992;28;20449;-88
2021/05/21 05:51:13;;;;;;;4.67;3.73;;;17.20;41.70;;;;;;5100827;28;20470;-89
2021/05/21 05:53:41;;;;;;;10.47;4.30;;;17.10;41.90;;;;;;5114175;28;20442;-88
2021/05/21 05:56:09;;;;;;;8.33;3.70;;;17.40;42.10;;;;;;5119469;28;20499;-88
2021/05/21 05:58:36;;;;;;;6.43;3.37;;;17.60;41.30;;;;;;5120034;28;20506;-88
2021/05/21 06:01:03;;;;;;;5.53;3.73;;;17.40;41.40;;;;;;5138466;22;20494;-82
2021/05/21 06:03:29;;;;;;;8.57;4.13;;;17.70;40.80;;;;;;5105861;28;20470;-82
2021/05/21 06:05:56;;;;;;;8.00;3.50;;;17.80;40.20;;;;;;5102297;28;20846;-82
2021/05/21 06:08:22;;;;;;;4.70;3.80;;;18.10;39.80;;;;;;5102536;28;20449;-82
2021/05/21 06:10:50;;;;;;;5.60;4.07;;;18.50;39.10;;;;;;5114191;28;20521;-82
2021/05/21 06:13:21;;;;;;;5.17;3.10;;;18.60;38.00;;;;;;5115085;28;20427;-82
2021/05/21 06:15:48;;;;;;;4.70;3.03;;;18.50;38.20;;;;;;5115038;28;20427;-82
2021/05/21 06:18:14;;;;;;;4.23;3.03;;;18.90;37.70;;;;;;5111503;28;20791;-82
2021/05/21 06:20:40;;;;;;;6.30;2.93;;;19.00;36.90;;;;;;5102967;28;20487;-83
2021/05/21 06:23:07;;;;;;;2.50;2.30;;;19.00;37.40;;;;;;5096382;28;20564;-84
2021/05/21 06:25:54;;;;;;;10.83;3.17;;;19.30;37.30;;;;;;5096176;28;20924;-83
2021/05/21 06:28:23;;;;;;;3.27;2.90;;;19.50;36.20;;;;;;5096926;28;20466;-83
2021/05/21 06:30:49;;;;;;;2.83;2.50;;;19.50;36.20;;;;;;5095841;28;20474;-83
2021/05/21 06:33:16;;;;;;;6.70;3.00;;;19.20;36.50;;;;;;5096022;28;20519;-83
2021/05/21 06:35:42;;;;;;;4.77;2.73;;;19.10;37.30;;;;;;5094584;28;20475;-83
2021/05/21 06:38:09;;;;;;;4.53;3.13;;;19.00;37.90;;;;;;5095544;28;20442;-83
2021/05/21 06:40:35;;;;;;;7.20;3.90;;;19.10;38.20;;;;;;5094785;28;20489;-83
2021/05/21 06:43:07;;;;;;;4.13;2.80;;;19.00;38.10;;;;;;5095625;28;20450;-83
2021/05/21 06:45:34;;;;;;;6.63;2.93;;;19.10;38.10;;;;;;5095497;28;20472;-83
2021/05/21 06:48:00;;;;;;;8.90;3.10;;;19.10;37.70;;;;;;5096048;28;20474;-85
2021/05/21 06:50:27;;;;;;;11.27;2.80;;;19.00;37.70;;;;;;5095144;28;20537;-84
2021/05/21 06:52:53;;;;;;;2.83;2.67;;;19.10;37.70;;;;;;5095500;28;20477;-82
2021/05/21 06:55:19;;;;;;;12.70;3.13;;;19.10;36.40;;;;;;5097431;28;20538;-82
2021/05/21 06:57:46;;;;;;;5.33;3.23;;;19.40;36.70;;;;;;5095054;28;20934;-83
2021/05/21 07:00:13;;;;;;;6.40;2.70;;;19.40;35.80;;;;;;5095833;28;20539;-84
2021/05/21 07:02:40;;;;;;;4.43;2.67;;;19.30;36.50;;;;;;5095869;28;20430;-83
2021/05/21 07:05:08;;;;;;;8.23;3.60;;;19.40;35.90;;;;;;5098368;28;20487;-83
2021/05/21 07:07:34;;;;;;;4.60;2.80;;;19.40;35.50;;;;;;5096708;28;20503;-83
2021/05/21 07:10:01;;;;;;;5.50;3.27;;;19.40;35.60;;;;;;5096732;28;20977;-83
2021/05/21 07:12:28;;;;;;;3.80;3.10;;;19.50;35.60;;;;;;5097689;28;20438;-81
2021/05/21 07:14:54;;;;;;;3.13;2.80;;;19.60;34.90;;;;;;5101436;28;20474;-81
2021/05/21 07:17:21;;;;;;;10.53;3.27;;;19.50;35.90;;;;;;5101427;28;20876;-82
2021/05/21 07:19:48;;;;;;;5.53;2.90;;;19.40;36.10;;;;;;5097541;28;20525;-82
2021/05/21 07:22:15;;;;;;;4.97;2.93;;;19.70;35.60;;;;;;5094829;28;20602;-82
2021/05/21 07:24:41;;;;;;;3.20;2.97;;;19.90;35.70;;;;;;5094475;28;20478;-82
2021/05/21 07:27:08;;;;;;;5.47;3.70;;;20.10;35.90;;;;;;5095647;28;20477;-83
2021/05/21 07:29:34;;;;;;;4.37;2.67;;;20.20;36.10;;;;;;5095106;28;20481;-83
2021/05/21 07:32:00;;;;;;;2.97;2.50;;;20.30;36.00;;;;;;5095644;28;20905;-83
2021/05/21 07:34:27;;;;;;;4.77;2.63;;;20.60;35.40;;;;;;5095740;28;20536;-83
2021/05/21 07:36:54;;;;;;;10.97;2.90;;;20.70;35.10;;;;;;5095648;28;20484;-83
2021/05/21 07:39:20;;;;;;;4.27;2.30;;;21.00;34.30;;;;;;5095791;28;20450;-83
2021/05/21 07:41:47;;;;;;;5.17;3.00;;;21.00;33.80;;;;;;5095129;28;21008;-83
2021/05/21 07:44:15;;;;;;;5.93;2.57;;;21.40;34.90;;;;;;5095264;28;20573;-82
2021/05/21 07:46:41;;;;;;;2.90;2.63;;;21.40;35.30;;;;;;5094783;28;20445;-83
2021/05/21 07:49:08;;;;;;;5.70;2.50;;;21.40;35.70;;;;;;5103471;28;20457;-84
2021/05/21 07:51:34;;;;;;;3.70;2.53;;;21.30;35.80;;;;;;5104879;28;20502;-83
2021/05/21 07:54:02;;;;;;;3.37;2.40;;;21.30;35.90;;;;;;5101181;28;20453;-83
2021/05/21 07:56:28;;;;;;;3.57;2.70;;;21.50;33.80;;;;;;5095639;28;20447;-84
2021/05/21 07:58:55;;;;;;;3.00;2.30;;;21.40;33.30;;;;;;5095978;28;20478;-83
2021/05/21 08:01:21;;;;;;;2.30;2.00;;;21.30;32.20;;;;;;5095659;28;20482;-83
2021/05/21 08:03:49;;;;;;;10.73;2.37;;;20.60;31.90;;;;;;5096247;28;20463;-84
2021/05/21 08:06:15;;;;;;;2.37;1.80;;;20.40;32.50;;;;;;5097197;28;20457;-82
2021/05/21 08:08:42;;;;;;;4.10;2.20;;;20.30;30.80;;;;;;5099683;28;20447;-82
2021/05/21 08:11:09;;;;;;;2.30;2.10;;;20.60;30.30;;;;;;5095835;28;20459;-82
2021/05/21 08:13:39;;;;;;;9.80;2.00;;;20.40;30.10;;;;;;5094645;28;20470;-83
2021/05/21 08:16:09;;;;;;;3.77;2.63;;;20.60;31.80;;;;;;5094656;28;20873;-84
2021/05/21 08:18:36;;;;;;;3.00;1.90;;;20.50;31.90;;;;;;5095091;28;20458;-82
2021/05/21 08:21:03;;;;;;;2.10;1.97;;;20.10;31.80;;;;;;5094614;28;20513;-83
2021/05/21 08:23:30;;;;;;;2.50;2.07;;;19.60;31.30;;;;;;5094582;28;20449;-83
2021/05/21 08:25:56;;;;;;;7.50;2.10;;;19.70;31.50;;;;;;5095953;28;20479;-83
2021/05/21 08:28:25;;;;;;;2.33;1.90;;;20.20;33.50;;;;;;5094038;28;20450;-83
2021/05/21 08:30:52;;;;;;;6.10;2.00;;;19.90;31.10;;;;;;5094463;28;20467;-83
2021/05/21 08:33:19;;;;;;;7.60;1.90;;;19.60;32.20;;;;;;5094735;28;20461;-84
2021/05/21 08:35:45;;;;;;;3.50;2.00;;;19.70;31.10;;;;;;5093921;28;20438;-84
2021/05/21 08:38:11;;;;;;;2.00;1.80;;;19.70;31.00;;;;;;5095283;28;20443;-83
2021/05/21 08:40:39;;;;;;;3.33;1.90;;;19.70;31.10;;;;;;5094686;28;20832;-83
2021/05/21 08:43:07;;;;;;;2.93;2.00;;;19.70;32.70;;;;;;5095250;28;20458;-83
2021/05/21 08:45:35;;;;;;;5.23;1.90;;;19.60;33.60;;;;;;5096883;28;20447;-83
2021/05/21 08:48:02;;;;;;;3.53;2.00;;;19.90;31.40;;;;;;5097153;28;20591;-83
2021/05/21 08:50:29;;;;;;;5.73;2.00;;;20.20;33.70;;;;;;5095552;28;20470;-83
2021/05/21 08:52:56;;;;;;;4.80;2.33;;;19.90;31.80;;;;;;5095770;28;20453;-83
2021/05/21 08:55:22;;;;;;;11.67;2.53;;;19.80;32.90;;;;;;5096282;28;20478;-83
2021/05/21 08:57:49;;;;;;;2.27;1.83;;;19.60;35.00;;;;;;5095597;28;20438;-83
2021/05/21 09:00:17;;;;;;;1.97;1.90;;;19.00;35.40;;;;;;5102340;28;20559;-83
2021/05/21 09:02:44;;;;;;;4.73;1.83;;;19.10;36.00;;;;;;5101936;28;20540;-83
2021/05/21 09:05:12;;;;;;;4.77;2.13;;;18.80;35.60;;;;;;5101886;28;20935;-83
2021/05/21 09:07:40;;;;;;;6.40;1.93;;;19.00;36.30;;;;;;5112107;28;20442;-83
2021/05/21 09:10:09;;;;;;;2.83;2.00;;;18.90;36.20;;;;;;5120299;28;20450;-83
2021/05/21 09:12:40;;;;;;;2.60;2.13;;;18.50;37.00;;;;;;5118894;28;20481;-83
2021/05/21 09:15:13;;;;;;;1.87;1.77;;;18.50;38.10;;;;;;5102854;28;20430;-83
2021/05/21 09:17:54;;;;;;;2.00;1.90;;;18.20;38.10;;;;;;5109370;28;20442;-83
2021/05/21 09:20:29;;;;;;;4.93;1.77;;;17.90;38.00;;;;;;5120705;28;20560;-83
2021/05/21 09:23:00;;;;;;;4.00;2.03;;;17.60;38.80;;;;;;5119301;28;20426;-83
2021/05/21 09:25:43;;;;;;;4.70;1.80;;;18.00;39.50;;;;;;5120393;28;20439;-83
2021/05/21 09:28:33;;;;;;;4.43;2.07;;;17.90;39.80;;;;;;5096869;28;21036;-83
2021/05/21 09:31:11;;;;;;;1.80;1.70;;;17.90;38.60;;;;;;5101468;28;20833;-83
2021/05/21 09:33:40;;;;;;;2.40;1.70;;;17.80;37.70;;;;;;5097109;28;20426;-83
2021/05/21 09:36:07;;;;;;;9.40;1.87;;;18.00;38.50;;;;;;5097756;28;20858;-82
2021/05/21 09:38:44;;;;;;;2.00;1.90;;;18.20;37.80;;;;;;5096879;28;20470;-82
2021/05/21 09:41:11;;;;;;;2.20;1.90;;;18.40;37.80;;;;;;5097263;28;20481;-83
2021/05/21 09:43:37;;;;;;;1.80;1.80;;;18.50;38.30;;;;;;5097019;28;20433;-82
2021/05/21 09:46:11;;;;;;;2.47;1.77;;;18.40;38.20;;;;;;5096555;28;20767;-82
2021/05/21 09:48:38;;;;;;;8.10;1.90;;;18.50;38.60;;;;;;5097199;28;20450;-82
2021/05/21 09:51:05;;;;;;;6.37;2.10;;;18.50;38.80;;;;;;5096911;28;20509;-82
2021/05/21 09:53:33;;;;;;;2.50;2.00;;;18.80;37.90;;;;;;5096797;28;20484;-83
2021/05/21 09:56:01;;;;;;;1.70;1.60;;;19.20;37.30;;;;;;5097242;28;20537;-84
2021/05/21 09:58:30;;;;;;;3.53;2.00;;;19.20;38.00;;;;;;5096598;28;20454;-83
2021/05/21 10:01:08;;;;;;;10.13;1.63;;;19.00;37.60;;;;;;5096175;28;20520;-83
2021/05/21 10:03:35;;;;;;;2.10;1.77;;;18.80;37.60;;;;;;5095985;28;20441;-83
2021/05/21 10:06:04;;;;;;;2.87;1.80;;;18.70;37.70;;;;;;5096482;28;20869;-83
2021/05/21 10:08:30;;;;;;;1.67;1.60;;;19.20;37.50;;;;;;5096234;28;20461;-83
2021/05/21 10:10:57;;;;;;;7.90;2.03;;;18.70;38.10;;;;;;5095352;28;20497;-83
2021/05/21 10:13:23;;;;;;;3.87;1.87;;;18.60;37.90;;;;;;5097310;28;20438;-82
2021/05/21 10:15:51;;;;;;;3.10;2.07;;;18.10;38.50;;;;;;5097210;28;20469;-84
2021/05/21 10:18:17;;;;;;;7.70;2.33;;;17.50;39.60;;;;;;5096580;28;20842;-83
2021/05/21 10:20:45;;;;;;;2.23;1.93;;;17.70;40.10;;;;;;5097125;28;20489;-82
2021/05/21 10:23:17;;;;;;;2.47;1.93;;;17.60;39.00;;;;;;5098729;28;20471;-84
2021/05/21 10:25:45;;;;;;;3.03;2.10;;;17.50;39.10;;;;;;5099055;28;20449;-83
2021/05/21 10:28:12;;;;;;;3.27;1.90;;;17.90;38.90;;;;;;5096438;28;20791;-82
2021/05/21 10:30:39;;;;;;;2.80;2.00;;;17.70;38.90;;;;;;5096264;28;20831;-82
2021/05/21 10:33:16;;;;;;;2.00;1.83;;;17.80;38.60;;;;;;5096373;28;20518;-82
2021/05/21 10:35:43;;;;;;;2.20;2.00;;;17.60;38.20;;;;;;5096265;28;20474;-83
2021/05/21 10:38:23;;;;;;;1.70;1.63;;;17.80;38.60;;;;;;5095720;28;20812;-83
2021/05/21 10:41:14;;;;;;;5.40;1.90;;;17.90;37.10;;;;;;5096178;28;20478;-83
2021/05/21 10:43:48;;;;;;;4.80;1.90;;;17.30;37.80;;;;;;5096337;28;20564;-83
2021/05/21 10:46:15;;;;;;;1.80;1.70;;;17.20;38.00;;;;;;5095762;28;20537;-83
2021/05/21 10:48:51;;;;;;;3.27;1.90;;;17.40;39.80;;;;;;5096195;28;20454;-83
2021/05/21 10:51:18;;;;;;;3.30;1.90;;;17.30;38.60;;;;;;5095874;28;20583;-83
2021/05/21 10:53:47;;;;;;;1.90;1.80;;;17.70;37.00;;;;;;5096151;28;20857;-83
2021/05/21 10:56:14;;;;;;;4.60;2.00;;;17.70;38.80;;;;;;5100134;28;20439;-82
2021/05/21 10:58:44;;;;;;;2.00;1.90;;;17.50;38.80;;;;;;5103938;28;20449;-83
2021/05/21 11:01:22;;;;;;;1.90;1.80;;;17.80;37.80;;;;;;5096505;28;20492;-83
2021/05/21 11:04:09;;;;;;;2.63;2.00;;;17.90;36.90;;;;;;5097600;28;20564;-82
2021/05/21 11:06:52;;;;;;;5.50;1.83;;;18.30;35.70;;;;;;5096469;28;20901;-82
2021/05/21 11:09:22;;;;;;;5.07;2.00;;;18.30;35.70;;;;;;5097949;28;20539;-83
2021/05/21 11:11:58;;;;;;;1.80;1.70;;;17.90;35.30;;;;;;5096426;28;20572;-82
2021/05/21 11:14:33;;;;;;;4.10;1.80;;;18.20;35.60;;;;;;5095763;28;20803;-83
2021/05/21 11:17:07;;;;;;;3.23;1.80;;;17.90;35.30;;;;;;5099863;28;20771;-83
2021/05/21 11:19:34;;;;;;;1.80;1.70;;;18.30;34.90;;;;;;5104396;28;20501;-83
2021/05/21 11:22:12;;;;;;;2.33;2.20;;;18.80;34.50;;;;;;5102894;28;20555;-83
2021/05/21 11:24:42;;;;;;;1.80;1.80;;;18.50;34.10;;;;;;5105136;28;20825;-83
2021/05/21 11:27:12;;;;;;;1.70;1.70;;;18.00;34.50;;;;;;5102689;28;20446;-83
2021/05/21 11:29:43;;;;;;;2.33;1.83;;;18.40;36.00;;;;;;5095316;28;20470;-83
2021/05/21 11:32:10;;;;;;;5.33;1.90;;;18.60;35.40;;;;;;5096632;28;20496;-83
2021/05/21 11:34:37;;;;;;;3.07;1.80;;;18.50;33.50;;;;;;5102809;28;20442;-83
2021/05/21 11:37:05;;;;;;;3.47;2.03;;;18.50;34.00;;;;;;5104058;28;20935;-83
2021/05/21 11:39:32;;;;;;;3.17;1.80;;;18.60;34.70;;;;;;5103170;28;20533;-83
2021/05/21 11:42:03;;;;;;;1.90;1.80;;;18.40;35.10;;;;;;5098690;28;20494;-83
2021/05/21 11:44:29;;;;;;;2.17;1.93;;;18.00;35.40;;;;;;5095559;28;20511;-83
2021/05/21 11:46:58;;;;;;;7.83;1.90;;;17.70;35.10;;;;;;5095308;28;20431;-83
2021/05/21 11:49:25;;;;;;;2.67;1.90;;;17.50;37.20;;;;;;5094851;28;20454;-83
2021/05/21 11:51:56;;;;;;;1.70;1.60;;;17.40;37.20;;;;;;5095529;28;20465;-83
2021/05/21 11:54:23;;;;;;;1.87;1.80;;;17.50;36.30;;;;;;5095342;28;20446;-82
2021/05/21 11:56:50;;;;;;;1.87;1.80;;;17.50;36.70;;;;;;5097288;28;20533;-83
2021/05/21 11:59:19;;;;;;;1.77;1.73;;;17.50;38.50;;;;;;5111176;28;20442;-83
2021/05/21 12:01:47;;;;;;;1.90;1.63;;;17.90;36.50;;;;;;5109646;28;20497;-83
2021/05/21 12:04:15;;;;;;;3.10;1.90;;;18.00;36.20;;;;;;5097662;28;20530;-83
2021/05/21 12:06:44;;;;;;;3.30;1.97;;;17.80;36.50;;;;;;5094988;28;20951;-83
2021/05/21 12:09:12;;;;;;;2.70;1.90;;;18.00;37.30;;;;;;5095332;28;20458;-83
2021/05/21 12:11:40;;;;;;;2.40;1.87;;;18.30;35.70;;;;;;5095082;28;21028;-83
2021/05/21 12:14:08;;;;;;;9.10;2.17;;;18.30;35.90;;;;;;5094699;28;20461;-83
2021/05/21 12:16:36;;;;;;;2.23;2.10;;;18.40;35.80;;;;;;5094577;28;20474;-83
2021/05/21 12:19:05;;;;;;;1.83;1.73;;;18.40;35.30;;;;;;5097435;28;20530;-84
2021/05/21 12:21:33;;;;;;;2.17;1.80;;;18.10;35.50;;;;;;5094406;28;21054;-82
2021/05/21 12:24:01;;;;;;;1.97;1.83;;;17.70;34.50;;;;;;5094483;28;20534;-83
2021/05/21 12:26:29;;;;;;;2.73;2.07;;;18.00;35.40;;;;;;5094921;28;20489;-83
2021/05/21 12:28:56;;;;;;;3.70;1.90;;;18.10;35.50;;;;;;5094592;28;20458;-82
2021/05/21 12:31:26;;;;;;;2.47;1.90;;;17.80;34.10;;;;;;5094467;28;20454;-82
2021/05/21 12:33:54;;;;;;;6.90;2.10;;;17.90;34.80;;;;;;5093653;28;20826;-83
2021/05/21 12:36:25;;;;;;;1.93;1.80;;;18.00;34.80;;;;;;5094394;28;20439;-82
2021/05/21 12:38:53;;;;;;;7.37;2.43;;;18.00;35.50;;;;;;5093964;28;20418;-83
2021/05/21 12:41:25;;;;;;;6.60;1.93;;;18.00;33.80;;;;;;5097847;28;20987;-82
2021/05/21 12:43:51;;;;;;;4.30;1.90;;;17.60;35.70;;;;;;5098502;28;20542;-82
2021/05/21 12:46:18;;;;;;;3.83;1.80;;;17.30;34.80;;;;;;5096469;28;20506;-82
2021/05/21 12:48:45;;;;;;;4.83;1.80;;;17.60;36.70;;;;;;5098013;28;20442;-82